Time;durP1;ratioP1;P1;durP2;ratioP2;P2;SDS_P1;SDS_P2;PMS_P1;PMS_P2;Temp;Humidity;BMP_temperature;BMP_pressure;BME280_temperature;BME280_humidity;BME280_pressure;Samples;Min_cycle;Max_cycle;Signal;HPM_P1;HPM_P2
2021/10/09 00:01:24;;;;;;;33.67;22.50;;;;;;;;;;5107575;28;20504;-79
2021/10/09 00:03:51;;;;;;;55.50;37.07;;;;;;;;;;5111474;27;20468;-79
2021/10/09 00:06:18;;;;;;;46.70;28.10;;;;;;;;;;5099433;28;20557;-81
2021/10/09 00:08:46;;;;;;;25.27;15.87;;;;;;;;;;5095165;28;20475;-81
2021/10/09 00:11:16;;;;;;;29.10;20.10;;;;;;;;;;5101422;27;20467;-82
2021/10/09 00:13:43;;;;;;;31.03;16.90;;;;;;;;;;5093855;28;20460;-80
2021/10/09 00:16:11;;;;;;;24.50;16.23;;;;;;;;;;5092629;27;20475;-80
2021/10/09 00:18:38;;;;;;;30.07;15.97;;;;;;;;;;5091638;28;20487;-79
2021/10/09 00:21:05;;;;;;;23.43;15.60;;;;;;;;;;5098919;28;20471;-79
2021/10/09 00:23:32;;;;;;;22.33;14.97;;;;;;;;;;5093334;27;20483;-80
2021/10/09 00:26:00;;;;;;;28.30;20.97;;;;;;;;;;5096206;28;20508;-80
2021/10/09 00:28:31;;;;;;;37.90;25.30;;;;;;;;;;5093898;27;20900;-79
2021/10/09 00:30:58;;;;;;;72.33;47.40;;;;;;;;;;5089562;28;20476;-80
2021/10/09 00:33:28;;;;;;;21.90;15.97;;;;;;;;;;5106565;28;20450;-80
2021/10/09 00:35:55;;;;;;;23.00;15.80;;;;;;;;;;5103525;28;20459;-80
2021/10/09 00:38:22;;;;;;;38.80;25.13;;;;;;;;;;5106415;27;20507;-80
2021/10/09 00:40:51;;;;;;;26.43;17.73;;;;;;;;;;5098195;28;20550;-80
2021/10/09 00:43:18;;;;;;;54.60;34.57;;;;;;;;;;5108469;28;20464;-80
2021/10/09 00:45:50;;;;;;;23.17;14.97;;;;;;;;;;5094706;28;20552;-80
2021/10/09 00:48:17;;;;;;;22.80;14.60;;;;;;;;;;5087532;28;20480;-79
2021/10/09 00:50:47;;;;;;;27.80;15.43;;;;;;;;;;5101560;28;20527;-78
2021/10/09 00:53:16;;;;;;;18.50;13.60;;;;;;;;;;5098050;28;20471;-80
2021/10/09 00:55:44;;;;;;;20.00;13.10;;;;;;;;;;5098685;28;20463;-79
2021/10/09 00:58:11;;;;;;;21.70;14.53;;;;;;;;;;5093980;28;21101;-80
2021/10/09 01:00:39;;;;;;;23.80;14.80;;;;;;;;;;5112470;28;20535;-79
2021/10/09 01:03:07;;;;;;;19.73;14.47;;;;;;;;;;5091374;28;20473;-80
2021/10/09 01:05:35;;;;;;;30.90;16.70;;;;;;;;;;5092550;28;20464;-79
2021/10/09 01:08:02;;;;;;;18.53;14.03;;;;;;;;;;5093511;28;20476;-79
2021/10/09 01:10:29;;;;;;;22.67;13.97;;;;;;;;;;5095372;28;20832;-80
2021/10/09 01:12:57;;;;;;;22.90;13.67;;;;;;;;;;5090695;28;20543;-80
2021/10/09 01:15:29;;;;;;;25.40;15.20;;;;;;;;;;5094682;28;20464;-80
2021/10/09 01:18:06;;;;;;;15.03;12.50;;;;;;;;;;5086330;28;20840;-79
2021/10/09 01:20:45;;;;;;;24.80;14.60;;;;;;;;;;5097662;28;20618;-80
2021/10/09 01:23:13;;;;;;;19.20;12.93;;;;;;;;;;5102261;28;20479;-80
2021/10/09 01:25:40;;;;;;;18.90;14.40;;;;;;;;;;5107438;28;21054;-80
2021/10/09 01:28:08;;;;;;;22.50;13.70;;;;;;;;;;5094910;28;20514;-79
2021/10/09 01:30:36;;;;;;;17.30;11.83;;;;;;;;;;5098820;28;20800;-79
2021/10/09 01:33:07;;;;;;;20.87;15.30;;;;;;;;;;5087255;28;20464;-79
2021/10/09 01:35:47;;;;;;;16.07;11.73;;;;;;;;;;5103868;28;20860;-80
2021/10/09 01:38:14;;;;;;;21.50;12.03;;;;;;;;;;5099870;28;20523;-79
2021/10/09 01:40:41;;;;;;;16.30;11.20;;;;;;;;;;5095889;27;20468;-79
2021/10/09 01:43:09;;;;;;;16.97;11.70;;;;;;;;;;5091638;28;20480;-79
2021/10/09 01:45:36;;;;;;;18.63;12.03;;;;;;;;;;5111122;28;20574;-80
2021/10/09 01:48:03;;;;;;;19.00;12.70;;;;;;;;;;5103612;28;20471;-80
2021/10/09 01:50:34;;;;;;;20.10;12.93;;;;;;;;;;5101117;28;20519;-79
2021/10/09 01:53:05;;;;;;;16.40;11.57;;;;;;;;;;5098588;28;20471;-79
2021/10/09 01:55:32;;;;;;;23.90;15.87;;;;;;;;;;5091032;28;20456;-80
2021/10/09 01:57:59;;;;;;;16.13;11.97;;;;;;;;;;5095243;28;20659;-79
2021/10/09 02:00:26;;;;;;;20.73;13.77;;;;;;;;;;5087600;28;20551;-78
2021/10/09 02:02:56;;;;;;;19.70;13.83;;;;;;;;;;5105971;28;20560;-79
2021/10/09 02:05:23;;;;;;;26.63;18.57;;;;;;;;;;5106062;28;20444;-80
2021/10/09 02:07:50;;;;;;;17.50;13.13;;;;;;;;;;5109116;27;20472;-80
2021/10/09 02:10:18;;;;;;;16.77;11.87;;;;;;;;;;5105242;28;20447;-79
2021/10/09 02:12:45;;;;;;;15.90;12.13;;;;;;;;;;5112063;27;20455;-80
2021/10/09 02:15:14;;;;;;;18.30;12.03;;;;;;;;;;5117456;27;20497;-79
2021/10/09 02:25:57;;;;;;;17.80;10.47;;;;;;;;;;5113720;28;20426;-80
2021/10/09 02:28:26;;;;;;;16.93;11.83;;;;;;;;;;5106091;28;20491;-80
2021/10/09 02:30:55;;;;;;;16.60;11.60;;;;;;;;;;5124793;27;20450;-80
2021/10/09 02:33:22;;;;;;;16.63;11.53;;;;;;;;;;5120330;27;20451;-80
2021/10/09 02:35:49;;;;;;;16.17;11.97;;;;;;;;;;5114061;27;20483;-80
2021/10/09 02:38:17;;;;;;;18.60;12.63;;;;;;;;;;5113106;27;20491;-79
2021/10/09 02:40:49;;;;;;;17.40;12.03;;;;;;;;;;5107678;28;20526;-80
2021/10/09 02:43:17;;;;;;;21.57;13.10;;;;;;;;;;5106962;28;20488;-81
2021/10/09 02:45:43;;;;;;;20.50;12.80;;;;;;;;;;5103374;28;20519;-79
2021/10/09 02:48:15;;;;;;;24.30;15.10;;;;;;;;;;5105643;28;20882;-80
2021/10/09 02:50:43;;;;;;;18.27;13.30;;;;;;;;;;5105077;28;21069;-80
2021/10/09 02:53:10;;;;;;;18.70;14.47;;;;;;;;;;5125187;27;20456;-80
2021/10/09 02:55:37;;;;;;;18.03;12.67;;;;;;;;;;5108763;28;20876;-79
2021/10/09 02:58:05;;;;;;;18.30;12.50;;;;;;;;;;5108692;27;20495;-79
2021/10/09 03:00:32;;;;;;;39.60;24.43;;;;;;;;;;5098350;28;20447;-80
2021/10/09 03:03:01;;;;;;;24.57;15.10;;;;;;;;;;5116651;28;20555;-79
2021/10/09 03:05:28;;;;;;;19.63;13.73;;;;;;;;;;5101092;28;20773;-79
2021/10/09 03:07:55;;;;;;;18.43;13.20;;;;;;;;;;5111653;28;20580;-80
2021/10/09 03:10:23;;;;;;;21.80;14.80;;;;;;;;;;5105291;28;20543;-79
2021/10/09 03:12:50;;;;;;;17.80;12.27;;;;;;;;;;5105171;28;20543;-81
2021/10/09 03:15:17;;;;;;;22.10;14.17;;;;;;;;;;5106097;28;20773;-80
2021/10/09 03:17:46;;;;;;;16.63;11.43;;;;;;;;;;5104737;28;20464;-80
2021/10/09 03:20:13;;;;;;;18.33;11.27;;;;;;;;;;5104482;28;20543;-80
2021/10/09 03:22:40;;;;;;;13.80;10.77;;;;;;;;;;5104224;28;20502;-80
2021/10/09 03:25:08;;;;;;;17.37;12.13;;;;;;;;;;5104341;28;20479;-80
2021/10/09 03:27:35;;;;;;;16.90;13.00;;;;;;;;;;5104702;28;20466;-79
2021/10/09 03:30:02;;;;;;;16.90;10.50;;;;;;;;;;5103537;28;20456;-79
2021/10/09 03:32:29;;;;;;;16.60;10.60;;;;;;;;;;5105841;28;20467;-79
2021/10/09 03:34:57;;;;;;;17.47;12.50;;;;;;;;;;5103883;28;20470;-81
2021/10/09 03:37:24;;;;;;;17.90;11.63;;;;;;;;;;5085199;28;20476;-79
2021/10/09 03:39:52;;;;;;;19.23;12.20;;;;;;;;;;5110932;27;20978;-79
2021/10/09 03:42:25;;;;;;;18.47;11.40;;;;;;;;;;5123423;27;20462;-79
2021/10/09 03:44:55;;;;;;;18.13;10.00;;;;;;;;;;5113578;28;20802;-79
2021/10/09 03:47:25;;;;;;;18.27;11.07;;;;;;;;;;5103567;28;20482;-79
2021/10/09 03:49:54;;;;;;;16.80;10.43;;;;;;;;;;5105185;28;20843;-80
2021/10/09 03:52:36;;;;;;;20.27;12.67;;;;;;;;;;5104057;28;20612;-79
2021/10/09 03:55:04;;;;;;;18.10;11.50;;;;;;;;;;5100612;28;20470;-80
2021/10/09 03:57:31;;;;;;;18.90;11.03;;;;;;;;;;5103857;28;20894;-78
2021/10/09 03:59:58;;;;;;;17.77;10.43;;;;;;;;;;5104243;28;20490;-80
2021/10/09 04:02:25;;;;;;;24.33;13.20;;;;;;;;;;5103193;28;20449;-80
2021/10/09 04:04:53;;;;;;;16.67;11.07;;;;;;;;;;5088473;28;20543;-80
2021/10/09 04:07:20;;;;;;;23.30;12.20;;;;;;;;;;5110899;27;20513;-80
2021/10/09 04:09:47;;;;;;;14.73;10.97;;;;;;;;;;5084150;28;20472;-80
2021/10/09 04:12:14;;;;;;;18.43;11.13;;;;;;;;;;5093188;28;20467;-79
2021/10/09 04:14:41;;;;;;;15.97;10.50;;;;;;;;;;5103599;28;20474;-80
2021/10/09 04:17:08;;;;;;;16.40;10.00;;;;;;;;;;5104892;28;20459;-80
2021/10/09 04:19:35;;;;;;;15.37;9.77;;;;;;;;;;5093996;28;20540;-80
2021/10/09 04:22:05;;;;;;;20.67;12.00;;;;;;;;;;5083141;28;20689;-80
2021/10/09 04:24:32;;;;;;;17.10;11.17;;;;;;;;;;5098272;28;20558;-80
2021/10/09 04:27:00;;;;;;;14.43;10.60;;;;;;;;;;5102322;28;21094;-80
2021/10/09 04:29:27;;;;;;;13.50;9.93;;;;;;;;;;5112426;27;20454;-79
2021/10/09 04:31:54;;;;;;;20.60;11.53;;;;;;;;;;5123374;27;20529;-80
2021/10/09 04:34:21;;;;;;;15.20;11.40;;;;;;;;;;5113518;27;20444;-79
2021/10/09 04:36:48;;;;;;;17.60;10.83;;;;;;;;;;5104366;28;20504;-80
2021/10/09 04:39:15;;;;;;;20.20;11.50;;;;;;;;;;5103224;28;21080;-80
2021/10/09 04:41:42;;;;;;;16.63;12.00;;;;;;;;;;5106566;28;20486;-80
2021/10/09 04:44:10;;;;;;;13.60;10.27;;;;;;;;;;5107126;28;20551;-79
2021/10/09 04:46:37;;;;;;;12.93;8.93;;;;;;;;;;5105876;28;20486;-81
2021/10/09 04:49:04;;;;;;;14.27;10.20;;;;;;;;;;5107630;28;20448;-80
2021/10/09 04:51:31;;;;;;;13.80;10.23;;;;;;;;;;5104448;28;20467;-80
2021/10/09 04:53:58;;;;;;;15.50;10.00;;;;;;;;;;5107529;28;20901;-80
2021/10/09 04:56:25;;;;;;;26.23;10.93;;;;;;;;;;5111063;28;20474;-80
2021/10/09 04:58:52;;;;;;;15.97;11.40;;;;;;;;;;5108054;28;20582;-81
2021/10/09 05:01:20;;;;;;;18.40;11.00;;;;;;;;;;5109858;28;20904;-80
2021/10/09 05:03:47;;;;;;;14.50;10.60;;;;;;;;;;5107745;28;20459;-79
2021/10/09 05:06:14;;;;;;;15.47;10.47;;;;;;;;;;5109094;28;20448;-80
2021/10/09 05:08:41;;;;;;;15.67;11.00;;;;;;;;;;5108432;28;20527;-80
2021/10/09 05:11:09;;;;;;;18.53;11.30;;;;;;;;;;5108019;28;20458;-80
2021/10/09 05:13:36;;;;;;;22.37;11.50;;;;;;;;;;5108972;28;20467;-80
2021/10/09 05:16:03;;;;;;;18.53;11.27;;;;;;;;;;5108616;28;20577;-80
2021/10/09 05:18:31;;;;;;;17.93;11.20;;;;;;;;;;5107846;28;20544;-80
2021/10/09 05:20:58;;;;;;;17.50;9.77;;;;;;;;;;5107503;28;20455;-80
2021/10/09 05:23:25;;;;;;;13.20;10.50;;;;;;;;;;5105276;28;21011;-78
2021/10/09 05:25:52;;;;;;;15.80;9.90;;;;;;;;;;5107357;28;20459;-81
2021/10/09 05:28:23;;;;;;;17.83;9.30;;;;;;;;;;5105928;28;20614;-80
2021/10/09 05:30:55;;;;;;;15.30;11.87;;;;;;;;;;5104262;28;20447;-80
2021/10/09 05:33:26;;;;;;;14.37;9.80;;;;;;;;;;5105031;28;20465;-80
2021/10/09 05:35:54;;;;;;;16.07;9.87;;;;;;;;;;5105517;28;20754;-80
2021/10/09 05:38:21;;;;;;;15.37;10.77;;;;;;;;;;5107427;28;20546;-80
2021/10/09 05:40:48;;;;;;;16.37;11.47;;;;;;;;;;5110965;28;20451;-78
2021/10/09 05:43:15;;;;;;;17.87;11.10;;;;;;;;;;5107816;28;20884;-80
2021/10/09 05:45:42;;;;;;;14.87;11.30;;;;;;;;;;5108183;28;20555;-81
2021/10/09 05:48:10;;;;;;;15.80;11.07;;;;;;;;;;5107967;28;20471;-81
2021/10/09 05:50:45;;;;;;;13.50;9.87;;;;;;;;;;5106374;28;20901;-81
2021/10/09 05:53:26;;;;;;;17.83;11.40;;;;;;;;;;5107273;28;20568;-80
2021/10/09 05:55:55;;;;;;;14.90;10.80;;;;;;;;;;5106477;28;20455;-80
2021/10/09 05:58:26;;;;;;;16.90;9.87;;;;;;;;;;5104291;28;20487;-80
2021/10/09 06:26:09;;;;;;;19.97;10.93;;;;;;;;;;5109272;28;20538;-80
2021/10/09 06:37:50;;;;;;;17.83;11.00;;;;;;;;;;5106742;28;20449;-80
2021/10/09 06:43:40;;;;;;;14.47;10.60;;;;;;;;;;5108711;28;20467;-81
2021/10/09 06:46:38;;;;;;;14.73;10.00;;;;;;;;;;5107557;28;20446;-81
2021/10/09 07:00:07;;;;;;;16.90;10.60;;;;;;;;;;5108377;28;20492;-80
2021/10/09 07:02:38;;;;;;;15.30;9.60;;;;;;;;;;5107613;28;20499;-79
2021/10/09 07:05:06;;;;;;;17.93;10.03;;;;;;;;;;5107798;28;20460;-80
2021/10/09 07:07:36;;;;;;;16.97;9.40;;;;;;;;;;5108519;28;20447;-80
2021/10/09 07:10:03;;;;;;;21.80;10.67;;;;;;;;;;5108178;28;20661;-80
2021/10/09 07:12:31;;;;;;;15.77;10.50;;;;;;;;;;5110583;28;20448;-80
2021/10/09 07:14:58;;;;;;;18.53;10.27;;;;;;;;;;5111198;28;20547;-79
2021/10/09 07:17:25;;;;;;;14.57;8.90;;;;;;;;;;5090946;28;20747;-79
2021/10/09 07:19:54;;;;;;;19.07;10.40;;;;;;;;;;5087929;28;20632;-79
2021/10/09 07:22:24;;;;;;;14.13;8.33;;;;;;;;;;5094204;28;20865;-79
2021/10/09 07:24:51;;;;;;;10.07;7.63;;;;;;;;;;5104107;28;20523;-79
2021/10/09 07:27:18;;;;;;;16.43;10.60;;;;;;;;;;5104648;28;20871;-79
2021/10/09 07:29:46;;;;;;;17.80;10.53;;;;;;;;;;5105022;28;20490;-79
2021/10/09 07:32:13;;;;;;;15.20;8.97;;;;;;;;;;5090753;28;20441;-79
2021/10/09 07:34:41;;;;;;;12.30;8.43;;;;;;;;;;5086574;28;20456;-81
2021/10/09 07:37:08;;;;;;;15.50;9.00;;;;;;;;;;5086476;28;20453;-79
2021/10/09 07:39:36;;;;;;;19.20;10.00;;;;;;;;;;5087939;28;20472;-78
2021/10/09 07:42:08;;;;;;;13.47;8.70;;;;;;;;;;5084720;28;20468;-80
2021/10/09 07:44:35;;;;;;;18.07;9.47;;;;;;;;;;5091158;28;20457;-80
2021/10/09 07:47:06;;;;;;;15.47;9.30;;;;;;;;;;5086490;28;20461;-80
2021/10/09 07:49:33;;;;;;;17.40;9.07;;;;;;;;;;5089746;28;20704;-80
2021/10/09 07:52:03;;;;;;;18.17;9.77;;;;;;;;;;5088988;28;20449;-78
2021/10/09 07:54:30;;;;;;;18.30;10.77;;;;;;;;;;5088680;28;20456;-79
2021/10/09 07:56:57;;;;;;;23.07;11.17;;;;;;;;;;5081641;28;20517;-79
2021/10/09 07:59:24;;;;;;;23.10;10.70;;;;;;;;;;5081857;28;20491;-79
2021/10/09 08:01:52;;;;;;;15.20;8.23;;;;;;;;;;5096490;28;20451;-80
2021/10/09 08:04:30;;;;;;;15.90;10.13;;;;;;;;;;5107159;28;20464;-79
2021/10/09 08:06:57;;;;;;;17.67;8.73;;;;;;;;;;5110259;28;20504;-80
2021/10/09 08:09:26;;;;;;;16.73;9.40;;;;;;;;;;5104308;28;20460;-80
2021/10/09 08:11:55;;;;;;;15.37;8.40;;;;;;;;;;5105056;28;20477;-80
2021/10/09 08:17:11;;;;;;;13.73;9.27;;;;;;;;;;5120443;27;20441;-80
2021/10/09 08:19:38;;;;;;;12.80;8.60;;;;;;;;;;5129785;27;20732;-79
2021/10/09 08:22:09;;;;;;;15.13;8.07;;;;;;;;;;5127384;27;20442;-81
2021/10/09 08:24:41;;;;;;;13.17;8.67;;;;;;;;;;5126508;27;20481;-78
2021/10/09 08:27:34;;;;;;;11.03;8.33;;;;;;;;;;5124321;27;20925;-80
2021/10/09 08:35:35;;;;;;;13.00;7.27;;;;;;;;;;5100054;28;20947;-80
2021/10/09 08:41:01;;;;;;;15.70;9.20;;;;;;;;;;5074660;27;20442;-80
2021/10/09 08:43:28;;;;;;;9.70;7.80;;;;;;;;;;5126759;27;20443;-80
2021/10/09 08:45:58;;;;;;;14.07;6.57;;;;;;;;;;5129592;27;20976;-80
2021/10/09 08:48:29;;;;;;;18.90;7.90;;;;;;;;;;5099252;28;20479;-80
2021/10/09 08:50:57;;;;;;;9.87;6.90;;;;;;;;;;5097277;28;20471;-80
2021/10/09 08:53:35;;;;;;;16.43;7.47;;;;;;;;;;5111035;28;20467;-79
2021/10/09 08:56:05;;;;;;;9.10;7.70;;;;;;;;;;5098099;28;21067;-80
2021/10/09 08:58:35;;;;;;;15.90;6.93;;;;;;;;;;5102866;28;20897;-80
2021/10/09 09:01:08;;;;;;;12.43;6.63;;;;;;;;;;5103733;28;20476;-79
2021/10/09 09:04:09;;;;;;;11.70;6.93;;;;;;;;;;5105235;28;20485;-80
2021/10/09 09:07:00;;;;;;;15.60;8.37;;;;;;;;;;5106816;28;20519;-80
2021/10/09 09:25:19;;;;;;;16.13;7.60;;;;;;;;;;5119380;28;20469;-80
2021/10/09 09:26:20;;;;;;;8.33;6.30;;;;;;;;;;5106924;28;20449;-79
2021/10/09 09:32:05;;;;;;;13.70;8.30;;;;;;;;;;5104282;27;21060;-80
2021/10/09 09:35:17;;;;;;;11.80;7.70;;;;;;;;;;5105071;28;20463;-79
2021/10/09 09:40:43;;;;;;;11.57;6.50;;;;;;;;;;5107239;28;20453;-78
2021/10/09 09:43:13;;;;;;;20.53;6.97;;;;;;;;;;5106952;28;20550;-78
2021/10/09 09:45:44;;;;;;;11.63;6.83;;;;;;;;;;5111882;28;20546;-78
2021/10/09 09:48:13;;;;;;;15.97;8.37;;;;;;;;;;5106051;28;20443;-78
2021/10/09 09:50:42;;;;;;;12.07;5.83;;;;;;;;;;5106494;28;20511;-81
2021/10/09 09:53:12;;;;;;;9.63;6.37;;;;;;;;;;5105182;28;20887;-80
2021/10/09 09:55:40;;;;;;;13.60;6.53;;;;;;;;;;5091060;28;20469;-79
2021/10/09 09:58:08;;;;;;;8.73;5.73;;;;;;;;;;5084452;28;20476;-79
2021/10/09 10:00:36;;;;;;;13.63;7.23;;;;;;;;;;5117338;27;21144;-80
2021/10/09 10:03:07;;;;;;;12.83;6.53;;;;;;;;;;5103367;28;20468;-80
2021/10/09 10:05:38;;;;;;;12.87;6.67;;;;;;;;;;5093985;28;20498;-79
2021/10/09 10:08:13;;;;;;;9.03;5.20;;;;;;;;;;5106076;28;20540;-79
2021/10/09 10:10:44;;;;;;;7.33;5.60;;;;;;;;;;5101956;28;21154;-79
2021/10/09 10:13:11;;;;;;;10.63;5.90;;;;;;;;;;5104890;27;20446;-79
2021/10/09 10:15:40;;;;;;;11.47;7.73;;;;;;;;;;5106078;27;20463;-80
2021/10/09 10:18:09;;;;;;;11.40;5.87;;;;;;;;;;5107123;28;20464;-79
2021/10/09 10:20:49;;;;;;;23.57;12.73;;;;;;;;;;5104957;28;20471;-79
2021/10/09 10:23:32;;;;;;;15.43;6.40;;;;;;;;;;5105005;28;20440;-78
2021/10/09 10:26:29;;;;;;;16.03;6.93;;;;;;;;;;5106219;28;20470;-79
2021/10/09 10:29:17;;;;;;;12.20;6.23;;;;;;;;;;5100047;28;20475;-79
2021/10/09 10:31:59;;;;;;;8.17;6.23;;;;;;;;;;5101748;28;20471;-80
2021/10/09 10:34:31;;;;;;;12.93;6.53;;;;;;;;;;5111290;27;20456;-80
2021/10/09 10:37:05;;;;;;;20.90;9.03;;;;;;;;;;5105322;28;20549;-80
2021/10/09 10:39:40;;;;;;;13.83;5.60;;;;;;;;;;5105065;28;20512;-81
2021/10/09 10:42:09;;;;;;;11.13;5.57;;;;;;;;;;5105632;28;20451;-78
2021/10/09 10:45:19;;;;;;;7.00;5.37;;;;;;;;;;5099068;28;20448;-80
2021/10/09 10:48:04;;;;;;;8.97;6.03;;;;;;;;;;5084378;28;20437;-79
2021/10/09 10:51:02;;;;;;;13.33;7.83;;;;;;;;;;5099619;28;20466;-78
2021/10/09 10:53:59;;;;;;;13.10;9.87;;;;;;;;;;5104563;28;20460;-81
2021/10/09 10:56:26;;;;;;;12.90;7.67;;;;;;;;;;5071976;28;20463;-79
2021/10/09 10:59:15;;;;;;;10.60;6.10;;;;;;;;;;5116351;27;20968;-80
2021/10/09 11:01:42;;;;;;;18.83;7.73;;;;;;;;;;5105657;28;20451;-81
2021/10/09 11:04:09;;;;;;;12.10;6.57;;;;;;;;;;5122005;27;20727;-79
2021/10/09 11:06:38;;;;;;;8.47;6.90;;;;;;;;;;5105175;28;20478;-80
2021/10/09 11:09:05;;;;;;;13.67;8.17;;;;;;;;;;5108458;28;20848;-80
2021/10/09 11:11:42;;;;;;;10.23;6.23;;;;;;;;;;5107691;28;20471;-80
2021/10/09 11:14:14;;;;;;;11.43;6.20;;;;;;;;;;5098794;28;21036;-80
2021/10/09 11:16:41;;;;;;;18.40;9.60;;;;;;;;;;5084496;28;20449;-80
2021/10/09 11:19:08;;;;;;;10.47;7.07;;;;;;;;;;5097508;28;21115;-79
2021/10/09 11:21:50;;;;;;;9.63;4.97;;;;;;;;;;5105444;28;20474;-80
2021/10/09 11:24:24;;;;;;;11.77;5.20;;;;;;;;;;5083131;28;20467;-80
2021/10/09 11:26:53;;;;;;;12.13;6.77;;;;;;;;;;5100265;28;20462;-80
2021/10/09 11:29:21;;;;;;;16.30;9.83;;;;;;;;;;5105440;28;20447;-80
2021/10/09 11:31:48;;;;;;;13.23;7.00;;;;;;;;;;5114102;27;20451;-80
2021/10/09 11:34:16;;;;;;;11.33;6.67;;;;;;;;;;5125966;27;21584;-79
2021/10/09 11:36:44;;;;;;;10.60;6.70;;;;;;;;;;5124618;27;20454;-79
2021/10/09 11:39:21;;;;;;;12.80;6.40;;;;;;;;;;5126627;27;20508;-80
2021/10/09 11:42:02;;;;;;;14.07;5.57;;;;;;;;;;5121953;27;20442;-79
2021/10/09 11:44:36;;;;;;;9.67;6.20;;;;;;;;;;5121590;27;20443;-81
2021/10/09 11:55:43;;;;;;;8.00;5.03;;;;;;;;;;5079132;28;20791;-80
2021/10/09 11:58:12;;;;;;;19.63;9.03;;;;;;;;;;5106398;28;20498;-80
2021/10/09 12:00:40;;;;;;;15.67;5.20;;;;;;;;;;5107622;28;20476;-80
2021/10/09 12:03:28;;;;;;;16.53;9.30;;;;;;;;;;5103009;28;20470;-80
2021/10/09 12:05:56;;;;;;;9.83;5.57;;;;;;;;;;5087605;28;20553;-80
2021/10/09 12:08:25;;;;;;;9.20;5.20;;;;;;;;;;5082471;28;20456;-79
2021/10/09 12:11:12;;;;;;;11.93;7.80;;;;;;;;;;5091003;28;20475;-79
2021/10/09 12:13:50;;;;;;;14.97;6.43;;;;;;;;;;5117256;27;20546;-79
2021/10/09 12:16:18;;;;;;;10.20;7.30;;;;;;;;;;5112455;27;20448;-79
2021/10/09 12:18:48;;;;;;;10.70;6.73;;;;;;;;;;5096108;28;20476;-80
2021/10/09 12:21:16;;;;;;;9.73;5.87;;;;;;;;;;5102174;28;20587;-78
2021/10/09 12:23:43;;;;;;;10.90;7.23;;;;;;;;;;5120644;27;20451;-78
2021/10/09 12:26:11;;;;;;;9.70;6.03;;;;;;;;;;5104586;28;20458;-78
2021/10/09 12:28:53;;;;;;;8.27;5.27;;;;;;;;;;5103008;28;20483;-80
2021/10/09 12:31:34;;;;;;;10.57;5.53;;;;;;;;;;5086205;28;20447;-79
2021/10/09 12:34:02;;;;;;;11.40;5.50;;;;;;;;;;5102548;28;20467;-80
2021/10/09 12:36:38;;;;;;;11.20;5.87;;;;;;;;;;5103699;28;20447;-81
2021/10/09 12:39:24;;;;;;;7.13;4.13;;;;;;;;;;5102897;28;20479;-78
2021/10/09 12:41:51;;;;;;;8.30;6.10;;;;;;;;;;5101585;28;20485;-79
2021/10/09 12:44:31;;;;;;;10.27;5.37;;;;;;;;;;5108372;28;20460;-80
2021/10/09 12:47:01;;;;;;;9.60;4.90;;;;;;;;;;5104289;28;20449;-80
2021/10/09 12:49:34;;;;;;;9.50;5.30;;;;;;;;;;5102322;28;20451;-80
2021/10/09 12:52:01;;;;;;;6.90;4.67;;;;;;;;;;5100582;28;20478;-82
2021/10/09 12:54:30;;;;;;;18.90;5.43;;;;;;;;;;5100855;28;20454;-80
2021/10/09 12:56:57;;;;;;;10.00;5.27;;;;;;;;;;5103645;28;20444;-79
2021/10/09 12:59:24;;;;;;;10.53;5.00;;;;;;;;;;5099826;28;20941;-81
2021/10/09 13:01:51;;;;;;;9.57;5.10;;;;;;;;;;5101784;28;20444;-80
2021/10/09 13:04:19;;;;;;;11.97;5.63;;;;;;;;;;5100706;28;20447;-80
2021/10/09 13:06:53;;;;;;;15.63;8.90;;;;;;;;;;5106400;27;20486;-82
2021/10/09 13:09:22;;;;;;;13.30;4.53;;;;;;;;;;5115121;27;20464;-81
2021/10/09 13:11:54;;;;;;;7.30;4.93;;;;;;;;;;5114695;28;20444;-79
2021/10/09 13:14:22;;;;;;;9.07;4.63;;;;;;;;;;5109434;28;20455;-81
2021/10/09 13:16:49;;;;;;;7.80;5.80;;;;;;;;;;5108772;28;20455;-80
2021/10/09 13:19:16;;;;;;;7.10;4.60;;;;;;;;;;5108228;28;20483;-80
2021/10/09 13:21:44;;;;;;;10.10;5.97;;;;;;;;;;5105782;28;20458;-82
2021/10/09 13:24:18;;;;;;;13.60;5.73;;;;;;;;;;5085930;28;20927;-80
2021/10/09 13:26:49;;;;;;;9.20;6.40;;;;;;;;;;5084668;28;20794;-80
2021/10/09 13:29:16;;;;;;;8.73;5.33;;;;;;;;;;5106402;28;20753;-79
2021/10/09 13:31:55;;;;;;;8.80;4.27;;;;;;;;;;5098058;28;20458;-81
2021/10/09 13:34:22;;;;;;;6.77;4.50;;;;;;;;;;5098560;28;20459;-81
2021/10/09 13:36:50;;;;;;;8.03;6.47;;;;;;;;;;5105970;28;20432;-84
2021/10/09 13:39:17;;;;;;;5.53;4.90;;;;;;;;;;5107632;28;20490;-81
2021/10/09 13:41:44;;;;;;;11.63;5.57;;;;;;;;;;5105746;28;21005;-81
2021/10/09 13:44:12;;;;;;;10.57;5.33;;;;;;;;;;5102971;28;20735;-80
2021/10/09 13:46:39;;;;;;;5.10;3.20;;;;;;;;;;5118759;27;20450;-80
2021/10/09 13:49:06;;;;;;;8.60;4.70;;;;;;;;;;5129840;27;20480;-79
2021/10/09 13:51:46;;;;;;;7.20;5.30;;;;;;;;;;5126969;27;20448;-79
2021/10/09 13:54:21;;;;;;;6.77;5.23;;;;;;;;;;5126334;27;20602;-81
2021/10/09 13:56:48;;;;;;;5.80;4.00;;;;;;;;;;5109270;28;20546;-80
2021/10/09 13:59:20;;;;;;;5.83;2.97;;;;;;;;;;5107391;28;20575;-80
2021/10/09 14:01:49;;;;;;;6.97;4.70;;;;;;;;;;5106390;28;20457;-79
2021/10/09 14:04:20;;;;;;;7.90;3.43;;;;;;;;;;5106932;28;20455;-81
2021/10/09 14:06:51;;;;;;;5.90;4.00;;;;;;;;;;5102265;28;20578;-82
2021/10/09 14:09:19;;;;;;;10.47;5.30;;;;;;;;;;5111770;27;20779;-81
2021/10/09 14:12:00;;;;;;;6.83;5.03;;;;;;;;;;5113248;27;20431;-79
2021/10/09 14:15:03;;;;;;;14.37;8.43;;;;;;;;;;5108930;28;20536;-80
2021/10/09 14:17:31;;;;;;;10.57;4.77;;;;;;;;;;5100178;28;20446;-78
2021/10/09 14:19:58;;;;;;;7.53;4.30;;;;;;;;;;5102878;28;20479;-80
2021/10/09 14:22:25;;;;;;;8.43;4.60;;;;;;;;;;5108133;28;20455;-80
2021/10/09 14:24:57;;;;;;;13.43;6.20;;;;;;;;;;5111201;28;20476;-80
2021/10/09 14:27:28;;;;;;;14.50;4.37;;;;;;;;;;5110170;28;20467;-81
2021/10/09 14:29:55;;;;;;;8.83;4.53;;;;;;;;;;5110286;28;20463;-79
2021/10/09 14:32:22;;;;;;;7.07;4.60;;;;;;;;;;5120131;27;20442;-79
2021/10/09 14:34:52;;;;;;;8.17;4.83;;;;;;;;;;5124594;27;20527;-79
2021/10/09 14:37:20;;;;;;;5.67;5.00;;;;;;;;;;5127693;27;20450;-81
2021/10/09 14:39:47;;;;;;;6.93;4.40;;;;;;;;;;5123012;27;20553;-80
2021/10/09 14:42:15;;;;;;;9.57;5.90;;;;;;;;;;5123365;27;20467;-79
2021/10/09 14:44:44;;;;;;;8.50;4.60;;;;;;;;;;5108270;27;20484;-80
2021/10/09 14:50:03;;;;;;;8.07;4.47;;;;;;;;;;5098265;28;20448;-79
2021/10/09 14:52:38;;;;;;;8.90;4.77;;;;;;;;;;5085041;28;20474;-82
2021/10/09 14:55:27;;;;;;;9.60;6.50;;;;;;;;;;5090030;28;20816;-80
2021/10/09 15:20:00;;;;;;;10.30;3.93;;;;;;;;;;5124324;27;20486;-80
2021/10/09 15:22:27;;;;;;;5.90;3.60;;;;;;;;;;5125434;27;20442;-80
2021/10/09 15:24:55;;;;;;;5.77;3.90;;;;;;;;;;5129088;27;20447;-81
2021/10/09 15:27:23;;;;;;;5.17;3.30;;;;;;;;;;5127405;27;20518;-81
2021/10/09 15:29:56;;;;;;;11.13;4.70;;;;;;;;;;5102869;28;20470;-81
2021/10/09 15:32:40;;;;;;;5.53;3.40;;;;;;;;;;5103383;28;21036;-81
2021/10/09 15:35:18;;;;;;;10.73;4.10;;;;;;;;;;5100801;28;20447;-80
2021/10/09 15:37:46;;;;;;;4.07;3.57;;;;;;;;;;5099803;28;20459;-80
2021/10/09 15:40:13;;;;;;;8.43;3.90;;;;;;;;;;5103874;28;20508;-80
2021/10/09 15:42:41;;;;;;;8.33;4.83;;;;;;;;;;5102951;28;20911;-80
2021/10/09 15:45:09;;;;;;;4.93;3.10;;;;;;;;;;5108372;28;20451;-82
2021/10/09 15:47:38;;;;;;;5.00;3.47;;;;;;;;;;5109810;28;20455;-83
2021/10/09 15:50:06;;;;;;;6.13;3.80;;;;;;;;;;5111412;28;20456;-83
2021/10/09 15:52:33;;;;;;;6.97;3.30;;;;;;;;;;5110851;28;20442;-80
2021/10/09 15:55:00;;;;;;;7.70;4.10;;;;;;;;;;5104159;28;20540;-81
2021/10/09 15:57:27;;;;;;;6.27;3.67;;;;;;;;;;5104651;28;20443;-81
2021/10/09 15:59:54;;;;;;;6.93;4.80;;;;;;;;;;5101999;28;20484;-80
2021/10/09 16:02:31;;;;;;;5.60;4.00;;;;;;;;;;5105136;28;20821;-81
2021/10/09 16:05:01;;;;;;;5.73;4.20;;;;;;;;;;5104310;28;20465;-82
2021/10/09 16:07:32;;;;;;;8.40;5.60;;;;;;;;;;5102735;28;20473;-81
2021/10/09 16:10:00;;;;;;;8.50;6.40;;;;;;;;;;5104935;28;20443;-80
2021/10/09 16:12:28;;;;;;;7.63;5.30;;;;;;;;;;5102912;28;20668;-82
2021/10/09 16:14:55;;;;;;;8.77;4.57;;;;;;;;;;5103581;28;20448;-80
2021/10/09 16:17:22;;;;;;;10.93;5.37;;;;;;;;;;5103924;28;20443;-82
2021/10/09 16:19:52;;;;;;;7.60;4.40;;;;;;;;;;5103858;28;20519;-80
2021/10/09 16:22:19;;;;;;;8.87;4.77;;;;;;;;;;5104068;28;20462;-81
2021/10/09 16:24:46;;;;;;;6.13;4.40;;;;;;;;;;5108143;28;20459;-79
2021/10/09 16:27:14;;;;;;;8.73;5.03;;;;;;;;;;5103209;28;20472;-80
2021/10/09 16:29:47;;;;;;;7.47;4.80;;;;;;;;;;5109774;28;20470;-80
2021/10/09 16:32:15;;;;;;;7.53;5.00;;;;;;;;;;5109207;28;20458;-80
2021/10/09 16:34:42;;;;;;;6.63;4.50;;;;;;;;;;5106881;28;20444;-81
2021/10/09 16:37:11;;;;;;;5.90;4.10;;;;;;;;;;5112261;28;20471;-80
2021/10/09 16:39:39;;;;;;;6.73;4.10;;;;;;;;;;5111355;28;20494;-81
2021/10/09 16:42:06;;;;;;;6.00;3.73;;;;;;;;;;5107984;28;20439;-81
2021/10/09 16:44:33;;;;;;;5.87;4.00;;;;;;;;;;5104590;28;20444;-83
2021/10/09 16:47:01;;;;;;;8.47;4.43;;;;;;;;;;5106376;28;20428;-81
2021/10/09 16:49:28;;;;;;;5.30;3.97;;;;;;;;;;5103457;28;20460;-81